sensor_id;sensor_type;location;lat;lon;timestamp;pressure;altitude;pressure_sealevel;temperature;humidity
38780;BME280;29273;49.962;9.768;2022-12-18T00:00:40;101192.59;;;-3.06;45.41
38780;BME280;29273;49.962;9.768;2022-12-18T00:03:06;101190.31;;;-3.12;45.63
38780;BME280;29273;49.962;9.768;2022-12-18T00:05:31;101196.44;;;-3.13;45.57
38780;BME280;29273;49.962;9.768;2022-12-18T00:07:57;101193.91;;;-3.14;45.74
38780;BME280;29273;49.962;9.768;2022-12-18T00:10:23;101191.41;;;-3.16;45.78
38780;BME280;29273;49.962;9.768;2022-12-18T00:12:48;101191.41;;;-3.16;45.74
38780;BME280;29273;49.962;9.768;2022-12-18T00:15:14;101194.00;;;-3.16;45.74
38780;BME280;29273;49.962;9.768;2022-12-18T00:17:39;101203.50;;;-3.17;45.75
38780;BME280;29273;49.962;9.768;2022-12-18T00:20:05;101209.63;;;-3.18;45.74
38780;BME280;29273;49.962;9.768;2022-12-18T00:22:31;101218.22;;;-3.17;45.88
38780;BME280;29273;49.962;9.768;2022-12-18T00:24:56;101212.38;;;-3.21;45.92
38780;BME280;29273;49.962;9.768;2022-12-18T00:27:22;101216.72;;;-3.21;45.55
38780;BME280;29273;49.962;9.768;2022-12-18T00:29:48;101219.31;;;-3.21;45.71
38780;BME280;29273;49.962;9.768;2022-12-18T00:32:13;101225.41;;;-3.22;45.74
38780;BME280;29273;49.962;9.768;2022-12-18T00:34:39;101238.44;;;-3.24;45.59
38780;BME280;29273;49.962;9.768;2022-12-18T00:37:04;101230.72;;;-3.25;45.61
38780;BME280;29273;49.962;9.768;2022-12-18T00:39:30;101219.53;;;-3.26;45.64
38780;BME280;29273;49.962;9.768;2022-12-18T00:41:55;101224.72;;;-3.26;45.56
38780;BME280;29273;49.962;9.768;2022-12-18T00:44:39;101217.09;;;-3.29;45.49
38780;BME280;29273;49.962;9.768;2022-12-18T00:47:05;101225.69;;;-3.28;45.62
38780;BME280;29273;49.962;9.768;2022-12-18T00:49:32;101222.34;;;-3.30;45.62
38780;BME280;29273;49.962;9.768;2022-12-18T00:51:57;101230.13;;;-3.30;45.64
38780;BME280;29273;49.962;9.768;2022-12-18T00:54:23;101237.00;;;-3.29;45.69
38780;BME280;29273;49.962;9.768;2022-12-18T00:56:49;101233.53;;;-3.30;45.75
38780;BME280;29273;49.962;9.768;2022-12-18T00:59:15;101230.88;;;-3.28;45.62
38780;BME280;29273;49.962;9.768;2022-12-18T01:01:41;101230.06;;;-3.29;45.76
38780;BME280;29273;49.962;9.768;2022-12-18T01:04:07;101236.06;;;-3.28;45.73
38780;BME280;29273;49.962;9.768;2022-12-18T01:06:33;101249.88;;;-3.28;45.88
38780;BME280;29273;49.962;9.768;2022-12-18T01:08:58;101253.38;;;-3.29;45.60
38780;BME280;29273;49.962;9.768;2022-12-18T01:11:24;101260.31;;;-3.29;45.54
38780;BME280;29273;49.962;9.768;2022-12-18T01:13:51;101263.66;;;-3.27;45.54
38780;BME280;29273;49.962;9.768;2022-12-18T01:16:17;101257.72;;;-3.29;45.44
38780;BME280;29273;49.962;9.768;2022-12-18T01:18:43;101250.84;;;-3.30;45.41
38780;BME280;29273;49.962;9.768;2022-12-18T01:21:11;101243.09;;;-3.30;45.42
38780;BME280;29273;49.962;9.768;2022-12-18T01:23:37;101249.16;;;-3.31;45.56
38780;BME280;29273;49.962;9.768;2022-12-18T01:26:08;101251.69;;;-3.30;45.46
38780;BME280;29273;49.962;9.768;2022-12-18T01:28:35;101259.63;;;-3.33;45.53
38780;BME280;29273;49.962;9.768;2022-12-18T01:31:23;101263.06;;;-3.32;45.44
38780;BME280;29273;49.962;9.768;2022-12-18T01:33:50;101254.53;;;-3.35;45.54
38780;BME280;29273;49.962;9.768;2022-12-18T01:36:17;101258.78;;;-3.33;45.60
38780;BME280;29273;49.962;9.768;2022-12-18T01:38:44;101261.44;;;-3.35;45.52
38780;BME280;29273;49.962;9.768;2022-12-18T01:41:10;101258.91;;;-3.37;45.52
38780;BME280;29273;49.962;9.768;2022-12-18T01:43:43;101258.78;;;-3.33;45.43
38780;BME280;29273;49.962;9.768;2022-12-18T01:46:08;101253.81;;;-3.38;45.54
38780;BME280;29273;49.962;9.768;2022-12-18T01:48:34;101253.06;;;-3.40;45.50
38780;BME280;29273;49.962;9.768;2022-12-18T01:51:00;101259.84;;;-3.38;45.53
38780;BME280;29273;49.962;9.768;2022-12-18T01:53:26;101259.09;;;-3.40;45.50
38780;BME280;29273;49.962;9.768;2022-12-18T01:55:56;101258.09;;;-3.37;45.56
38780;BME280;29273;49.962;9.768;2022-12-18T01:58:32;101254.75;;;-3.39;45.53
38780;BME280;29273;49.962;9.768;2022-12-18T02:01:01;101261.84;;;-3.43;45.48
38780;BME280;29273;49.962;9.768;2022-12-18T02:03:26;101261.06;;;-3.45;45.51
38780;BME280;29273;49.962;9.768;2022-12-18T02:06:03;101256.66;;;-3.43;45.58
38780;BME280;29273;49.962;9.768;2022-12-18T02:11:37;101259.63;;;-3.50;45.62
38780;BME280;29273;49.962;9.768;2022-12-18T02:16:52;101255.25;;;-3.50;45.40
38780;BME280;29273;49.962;9.768;2022-12-18T02:27:19;101223.78;;;-3.60;45.47
38780;BME280;29273;49.962;9.768;2022-12-18T02:29:50;101233.19;;;-3.57;45.23
38780;BME280;29273;49.962;9.768;2022-12-18T02:32:31;101240.19;;;-3.59;45.28
38780;BME280;29273;49.962;9.768;2022-12-18T02:34:59;101235.22;;;-3.64;45.06
38780;BME280;29273;49.962;9.768;2022-12-18T02:37:27;101234.47;;;-3.66;45.18
38780;BME280;29273;49.962;9.768;2022-12-18T02:39:58;101238.91;;;-3.68;45.01
38780;BME280;29273;49.962;9.768;2022-12-18T02:42:24;101257.91;;;-3.69;45.37
38780;BME280;29273;49.962;9.768;2022-12-18T02:44:51;101251.06;;;-3.70;45.13
38780;BME280;29273;49.962;9.768;2022-12-18T02:47:24;101250.16;;;-3.69;45.38
38780;BME280;29273;49.962;9.768;2022-12-18T02:52:33;101249.25;;;-3.68;45.25
38780;BME280;29273;49.962;9.768;2022-12-18T02:58:05;101250.22;;;-3.70;45.38
38780;BME280;29273;49.962;9.768;2022-12-18T03:00:44;101256.22;;;-3.70;45.33
38780;BME280;29273;49.962;9.768;2022-12-18T03:03:19;101255.41;;;-3.70;45.39
38780;BME280;29273;49.962;9.768;2022-12-18T03:05:56;101253.78;;;-3.73;45.27
38780;BME280;29273;49.962;9.768;2022-12-18T03:08:28;101265.97;;;-3.75;45.22
38780;BME280;29273;49.962;9.768;2022-12-18T03:11:06;101266.91;;;-3.76;45.07
38780;BME280;29273;49.962;9.768;2022-12-18T03:13:45;101268.69;;;-3.78;45.13
38780;BME280;29273;49.962;9.768;2022-12-18T03:16:19;101267.19;;;-3.82;45.01
38780;BME280;29273;49.962;9.768;2022-12-18T03:18:51;101265.56;;;-3.85;44.98
38780;BME280;29273;49.962;9.768;2022-12-18T03:21:22;101269.16;;;-3.87;44.99
38780;BME280;29273;49.962;9.768;2022-12-18T03:23:52;101266.63;;;-3.89;45.09
38780;BME280;29273;49.962;9.768;2022-12-18T03:26:23;101264.88;;;-3.88;45.15
38780;BME280;29273;49.962;9.768;2022-12-18T03:28:58;101267.47;;;-3.88;44.82
38780;BME280;29273;49.962;9.768;2022-12-18T03:31:25;101269.88;;;-4.03;45.12
38780;BME280;29273;49.962;9.768;2022-12-18T03:33:56;101268.53;;;-3.93;45.10
38780;BME280;29273;49.962;9.768;2022-12-18T03:36:30;101262.59;;;-3.95;45.13
38780;BME280;29273;49.962;9.768;2022-12-18T03:38:58;101261.66;;;-3.94;45.08
38780;BME280;29273;49.962;9.768;2022-12-18T03:41:32;101269.50;;;-3.95;45.43
38780;BME280;29273;49.962;9.768;2022-12-18T03:44:32;101266.03;;;-3.94;45.05
38780;BME280;29273;49.962;9.768;2022-12-18T03:52:31;101266.09;;;-3.96;45.29
38780;BME280;29273;49.962;9.768;2022-12-18T03:55:01;101270.50;;;-3.98;45.07
38780;BME280;29273;49.962;9.768;2022-12-18T03:57:32;101261.88;;;-3.98;44.89
38780;BME280;29273;49.962;9.768;2022-12-18T04:00:09;101261.88;;;-3.98;44.82
38780;BME280;29273;49.962;9.768;2022-12-18T04:02:55;101259.59;;;-4.04;44.91
38780;BME280;29273;49.962;9.768;2022-12-18T04:05:30;101263.03;;;-4.04;44.92
38780;BME280;29273;49.962;9.768;2022-12-18T04:07:56;101250.97;;;-4.05;44.96
38780;BME280;29273;49.962;9.768;2022-12-18T04:10:22;101258.75;;;-4.05;44.99
38780;BME280;29273;49.962;9.768;2022-12-18T04:12:48;101259.75;;;-4.07;44.85
38780;BME280;29273;49.962;9.768;2022-12-18T04:15:14;101266.66;;;-4.08;44.98
38780;BME280;29273;49.962;9.768;2022-12-18T04:17:47;101262.19;;;-4.04;45.03
38780;BME280;29273;49.962;9.768;2022-12-18T04:20:14;101265.88;;;-4.10;44.96
38780;BME280;29273;49.962;9.768;2022-12-18T04:22:42;101258.19;;;-4.12;44.76
38780;BME280;29273;49.962;9.768;2022-12-18T04:25:08;101255.59;;;-4.12;44.92
38780;BME280;29273;49.962;9.768;2022-12-18T04:27:46;101265.19;;;-4.14;45.03
38780;BME280;29273;49.962;9.768;2022-12-18T04:30:12;101269.59;;;-4.16;44.94
38780;BME280;29273;49.962;9.768;2022-12-18T04:32:38;101272.19;;;-4.16;45.04
38780;BME280;29273;49.962;9.768;2022-12-18T04:35:03;101274.84;;;-4.17;44.75
38780;BME280;29273;49.962;9.768;2022-12-18T04:37:32;101283.44;;;-4.17;44.77
38780;BME280;29273;49.962;9.768;2022-12-18T04:39:58;101286.09;;;-4.18;44.91
38780;BME280;29273;49.962;9.768;2022-12-18T04:42:31;101293.91;;;-4.20;44.94
38780;BME280;29273;49.962;9.768;2022-12-18T04:44:57;101289.59;;;-4.19;44.73
38780;BME280;29273;49.962;9.768;2022-12-18T04:47:22;101284.56;;;-4.22;44.73
38780;BME280;29273;49.962;9.768;2022-12-18T04:49:48;101287.09;;;-4.21;44.65
38780;BME280;29273;49.962;9.768;2022-12-18T04:52:13;101281.91;;;-4.21;44.71
38780;BME280;29273;49.962;9.768;2022-12-18T04:54:39;101282.81;;;-4.22;44.53
38780;BME280;29273;49.962;9.768;2022-12-18T04:57:04;101282.88;;;-4.23;44.40
38780;BME280;29273;49.962;9.768;2022-12-18T04:59:30;101281.22;;;-4.24;44.70
38780;BME280;29273;49.962;9.768;2022-12-18T05:01:55;101285.53;;;-4.25;44.71
38780;BME280;29273;49.962;9.768;2022-12-18T05:04:21;101284.72;;;-4.25;44.68
38780;BME280;29273;49.962;9.768;2022-12-18T05:06:46;101277.00;;;-4.27;44.77
38780;BME280;29273;49.962;9.768;2022-12-18T05:09:12;101278.78;;;-4.28;44.73
38780;BME280;29273;49.962;9.768;2022-12-18T05:11:37;101276.25;;;-4.29;44.77
38780;BME280;29273;49.962;9.768;2022-12-18T05:14:03;101269.38;;;-4.30;44.81
38780;BME280;29273;49.962;9.768;2022-12-18T05:16:29;101278.91;;;-4.31;44.78
38780;BME280;29273;49.962;9.768;2022-12-18T05:18:54;101289.19;;;-4.29;44.75
38780;BME280;29273;49.962;9.768;2022-12-18T05:21:20;101295.19;;;-4.29;44.81
38780;BME280;29273;49.962;9.768;2022-12-18T05:23:45;101291.84;;;-4.31;44.97
38780;BME280;29273;49.962;9.768;2022-12-18T05:26:15;101300.28;;;-4.27;44.89
38780;BME280;29273;49.962;9.768;2022-12-18T05:28:41;101295.31;;;-4.32;44.82
38780;BME280;29273;49.962;9.768;2022-12-18T05:31:06;101291.06;;;-4.33;44.93
38780;BME280;29273;49.962;9.768;2022-12-18T05:33:34;101291.00;;;-4.31;44.91
38780;BME280;29273;49.962;9.768;2022-12-18T05:36:01;101292.81;;;-4.33;44.73
38780;BME280;29273;49.962;9.768;2022-12-18T05:38:28;101304.06;;;-4.34;44.73
38780;BME280;29273;49.962;9.768;2022-12-18T05:40:55;101298.13;;;-4.36;44.59
38780;BME280;29273;49.962;9.768;2022-12-18T05:43:22;101299.03;;;-4.37;44.52
38780;BME280;29273;49.962;9.768;2022-12-18T05:45:48;101296.44;;;-4.37;44.60
38780;BME280;29273;49.962;9.768;2022-12-18T05:48:14;101294.75;;;-4.38;44.63
38780;BME280;29273;49.962;9.768;2022-12-18T05:50:42;101297.34;;;-4.38;44.40
38780;BME280;29273;49.962;9.768;2022-12-18T05:53:08;101305.09;;;-4.38;44.52
38780;BME280;29273;49.962;9.768;2022-12-18T05:55:34;101297.41;;;-4.40;44.76
38780;BME280;29273;49.962;9.768;2022-12-18T05:58:01;101298.34;;;-4.41;44.67
38780;BME280;29273;49.962;9.768;2022-12-18T06:00:27;101296.66;;;-4.42;44.80
38780;BME280;29273;49.962;9.768;2022-12-18T06:02:52;101309.66;;;-4.43;44.51
38780;BME280;29273;49.962;9.768;2022-12-18T06:05:18;101310.56;;;-4.44;44.39
38780;BME280;29273;49.962;9.768;2022-12-18T06:07:43;101314.81;;;-4.43;44.66
38780;BME280;29273;49.962;9.768;2022-12-18T06:10:09;101316.63;;;-4.46;44.43
38780;BME280;29273;49.962;9.768;2022-12-18T06:12:34;101323.56;;;-4.46;44.46
38780;BME280;29273;49.962;9.768;2022-12-18T06:15:00;101327.94;;;-4.48;44.49
38780;BME280;29273;49.962;9.768;2022-12-18T06:17:32;101332.97;;;-4.45;44.54
38780;BME280;29273;49.962;9.768;2022-12-18T06:19:57;101330.59;;;-4.50;44.65
38780;BME280;29273;49.962;9.768;2022-12-18T06:22:23;101345.28;;;-4.50;44.46
38780;BME280;29273;49.962;9.768;2022-12-18T06:24:48;101331.59;;;-4.52;44.67
38780;BME280;29273;49.962;9.768;2022-12-18T06:27:14;101333.34;;;-4.53;44.54
38780;BME280;29273;49.962;9.768;2022-12-18T06:29:40;101335.06;;;-4.53;44.50
38780;BME280;29273;49.962;9.768;2022-12-18T06:32:05;101335.94;;;-4.53;44.67
38780;BME280;29273;49.962;9.768;2022-12-18T06:34:31;101324.78;;;-4.55;44.61
38780;BME280;29273;49.962;9.768;2022-12-18T06:36:57;101341.16;;;-4.54;44.83
38780;BME280;29273;49.962;9.768;2022-12-18T06:39:23;101342.06;;;-4.55;44.71
38780;BME280;29273;49.962;9.768;2022-12-18T06:41:49;101340.38;;;-4.56;44.93
38780;BME280;29273;49.962;9.768;2022-12-18T06:44:14;101336.94;;;-4.57;44.58
38780;BME280;29273;49.962;9.768;2022-12-18T06:46:40;101348.06;;;-4.55;44.74
38780;BME280;29273;49.962;9.768;2022-12-18T06:49:05;101348.97;;;-4.56;44.90
38780;BME280;29273;49.962;9.768;2022-12-18T06:51:31;101354.97;;;-4.55;44.80
38780;BME280;29273;49.962;9.768;2022-12-18T06:53:57;101352.47;;;-4.57;44.75
38780;BME280;29273;49.962;9.768;2022-12-18T06:56:22;101351.69;;;-4.59;44.79
38780;BME280;29273;49.962;9.768;2022-12-18T06:58:48;101357.81;;;-4.61;44.55
38780;BME280;29273;49.962;9.768;2022-12-18T07:01:13;101357.88;;;-4.63;44.68
38780;BME280;29273;49.962;9.768;2022-12-18T07:03:40;101367.41;;;-4.63;44.75
38780;BME280;29273;49.962;9.768;2022-12-18T07:06:06;101364.94;;;-4.67;44.75
38780;BME280;29273;49.962;9.768;2022-12-18T07:08:37;101359.88;;;-4.70;44.95
38780;BME280;29273;49.962;9.768;2022-12-18T07:11:04;101362.56;;;-4.71;45.12
38780;BME280;29273;49.962;9.768;2022-12-18T07:13:29;101362.69;;;-4.74;44.96
38780;BME280;29273;49.962;9.768;2022-12-18T07:15:55;101369.66;;;-4.76;44.84
38780;BME280;29273;49.962;9.768;2022-12-18T07:18:20;101368.88;;;-4.78;45.10
38780;BME280;29273;49.962;9.768;2022-12-18T07:20:45;101376.75;;;-4.81;45.12
38780;BME280;29273;49.962;9.768;2022-12-18T07:23:11;101380.34;;;-4.84;45.21
38780;BME280;29273;49.962;9.768;2022-12-18T07:25:37;101380.34;;;-4.84;45.19
38780;BME280;29273;49.962;9.768;2022-12-18T07:28:03;101388.09;;;-4.84;45.11
38780;BME280;29273;49.962;9.768;2022-12-18T07:30:29;101385.50;;;-4.84;45.37
38780;BME280;29273;49.962;9.768;2022-12-18T07:32:55;101395.91;;;-4.86;45.29
38780;BME280;29273;49.962;9.768;2022-12-18T07:35:20;101407.13;;;-4.87;45.30
38780;BME280;29273;49.962;9.768;2022-12-18T07:37:45;101402.00;;;-4.88;45.19
38780;BME280;29273;49.962;9.768;2022-12-18T07:40:11;101402.06;;;-4.90;45.20
38780;BME280;29273;49.962;9.768;2022-12-18T07:42:37;101407.25;;;-4.90;45.39
38780;BME280;29273;49.962;9.768;2022-12-18T07:45:03;101413.34;;;-4.91;45.52
38780;BME280;29273;49.962;9.768;2022-12-18T07:47:29;101408.94;;;-4.89;45.64
38780;BME280;29273;49.962;9.768;2022-12-18T07:49:54;101416.63;;;-4.87;45.88
38780;BME280;29273;49.962;9.768;2022-12-18T07:52:20;101413.06;;;-4.85;46.11
38780;BME280;29273;49.962;9.768;2022-12-18T07:54:46;101412.13;;;-4.82;46.18
38780;BME280;29273;49.962;9.768;2022-12-18T07:57:14;101420.63;;;-4.80;46.31
38780;BME280;29273;49.962;9.768;2022-12-18T07:59:39;101416.19;;;-4.76;46.24
38780;BME280;29273;49.962;9.768;2022-12-18T08:02:05;101416.91;;;-4.73;46.37
38780;BME280;29273;49.962;9.768;2022-12-18T08:04:30;101421.88;;;-4.68;46.52
38780;BME280;29273;49.962;9.768;2022-12-18T08:06:56;101425.09;;;-4.63;46.58
38780;BME280;29273;49.962;9.768;2022-12-18T08:09:21;101430.09;;;-4.58;46.86
38780;BME280;29273;49.962;9.768;2022-12-18T08:11:47;101437.53;;;-4.51;46.78
38780;BME280;29273;49.962;9.768;2022-12-18T08:14:12;101432.94;;;-4.44;46.90
38780;BME280;29273;49.962;9.768;2022-12-18T08:16:39;101431.78;;;-4.37;46.86
38780;BME280;29273;49.962;9.768;2022-12-18T08:19:04;101434.94;;;-4.30;46.85
38780;BME280;29273;49.962;9.768;2022-12-18T08:21:31;101425.22;;;-4.25;46.86
38780;BME280;29273;49.962;9.768;2022-12-18T08:23:58;101421.56;;;-4.19;46.95
38780;BME280;29273;49.962;9.768;2022-12-18T08:26:27;101423.03;;;-4.14;47.03
38780;BME280;29273;49.962;9.768;2022-12-18T08:28:54;101424.59;;;-4.10;47.17
38780;BME280;29273;49.962;9.768;2022-12-18T08:31:21;101423.53;;;-4.05;47.11
38780;BME280;29273;49.962;9.768;2022-12-18T08:33:50;101418.91;;;-3.99;47.37
38780;BME280;29273;49.962;9.768;2022-12-18T08:36:17;101417.16;;;-3.98;47.41
38780;BME280;29273;49.962;9.768;2022-12-18T08:38:44;101421.38;;;-3.96;47.54
38780;BME280;29273;49.962;9.768;2022-12-18T08:41:11;101423.63;;;-3.88;47.73
38780;BME280;29273;49.962;9.768;2022-12-18T08:43:37;101406.22;;;-3.84;47.99
38780;BME280;29273;49.962;9.768;2022-12-18T08:46:23;101413.59;;;-3.77;48.05
38780;BME280;29273;49.962;9.768;2022-12-18T08:48:53;101408.91;;;-3.68;47.94
38780;BME280;29273;49.962;9.768;2022-12-18T08:51:20;101396.84;;;-3.68;47.96
38780;BME280;29273;49.962;9.768;2022-12-18T08:53:46;101399.13;;;-3.62;48.11
38780;BME280;29273;49.962;9.768;2022-12-18T08:56:12;101396.31;;;-3.57;48.30
38780;BME280;29273;49.962;9.768;2022-12-18T08:58:38;101393.53;;;-3.53;48.38
38780;BME280;29273;49.962;9.768;2022-12-18T09:01:06;101389.81;;;-3.47;48.25
38780;BME280;29273;49.962;9.768;2022-12-18T09:03:33;101389.66;;;-3.44;48.31
38780;BME280;29273;49.962;9.768;2022-12-18T09:05:59;101389.59;;;-3.42;48.27
38780;BME280;29273;49.962;9.768;2022-12-18T09:08:25;101383.34;;;-3.38;48.26
38780;BME280;29273;49.962;9.768;2022-12-18T09:10:51;101390.81;;;-3.32;48.42
38780;BME280;29273;49.962;9.768;2022-12-18T09:13:18;101394.97;;;-3.28;48.66
38780;BME280;29273;49.962;9.768;2022-12-18T09:15:46;101403.34;;;-3.23;48.85
38780;BME280;29273;49.962;9.768;2022-12-18T09:18:14;101396.34;;;-3.21;48.96
38780;BME280;29273;49.962;9.768;2022-12-18T09:20:39;101386.59;;;-3.16;49.32
38780;BME280;29273;49.962;9.768;2022-12-18T09:23:05;101386.31;;;-3.09;49.47
38780;BME280;29273;49.962;9.768;2022-12-18T09:25:32;101390.25;;;-3.02;49.93
38780;BME280;29273;49.962;9.768;2022-12-18T09:27:59;101377.00;;;-2.96;49.58
38780;BME280;29273;49.962;9.768;2022-12-18T09:30:26;101378.38;;;-2.89;49.88
38780;BME280;29273;49.962;9.768;2022-12-18T09:32:54;101380.69;;;-2.83;50.06
38780;BME280;29273;49.962;9.768;2022-12-18T09:35:20;101375.94;;;-2.74;50.12
38780;BME280;29273;49.962;9.768;2022-12-18T09:37:46;101370.34;;;-2.67;50.10
38780;BME280;29273;49.962;9.768;2022-12-18T09:40:20;101358.63;;;-2.56;49.86
38780;BME280;29273;49.962;9.768;2022-12-18T09:42:52;101372.13;;;-2.50;50.05
38780;BME280;29273;49.962;9.768;2022-12-18T09:45:20;101363.31;;;-2.47;50.41
38780;BME280;29273;49.962;9.768;2022-12-18T09:47:47;101349.97;;;-2.39;50.40
38780;BME280;29273;49.962;9.768;2022-12-18T09:50:35;101370.31;;;-2.32;50.22
38780;BME280;29273;49.962;9.768;2022-12-18T09:53:06;101365.47;;;-2.22;50.79
38780;BME280;29273;49.962;9.768;2022-12-18T09:55:39;101366.06;;;-2.17;50.74
38780;BME280;29273;49.962;9.768;2022-12-18T10:00:35;101385.19;;;-2.02;50.96
38780;BME280;29273;49.962;9.768;2022-12-18T10:03:09;101374.25;;;-1.91;50.60
38780;BME280;29273;49.962;9.768;2022-12-18T10:05:42;101376.50;;;-1.85;50.88
38780;BME280;29273;49.962;9.768;2022-12-18T10:08:40;101387.31;;;-1.77;50.85
38780;BME280;29273;49.962;9.768;2022-12-18T10:13:52;101367.59;;;-1.65;50.86
38780;BME280;29273;49.962;9.768;2022-12-18T10:16:37;101365.50;;;-1.58;50.71
38780;BME280;29273;49.962;9.768;2022-12-18T10:19:15;101366.22;;;-1.55;50.76
38780;BME280;29273;49.962;9.768;2022-12-18T10:27:18;101363.31;;;-1.34;50.59
38780;BME280;29273;49.962;9.768;2022-12-18T10:29:46;101352.84;;;-1.33;51.00
38780;BME280;29273;49.962;9.768;2022-12-18T10:32:37;101348.88;;;-1.24;50.68
38780;BME280;29273;49.962;9.768;2022-12-18T10:35:03;101348.78;;;-1.22;50.83
38780;BME280;29273;49.962;9.768;2022-12-18T10:37:29;101348.53;;;-1.18;51.01
38780;BME280;29273;49.962;9.768;2022-12-18T10:40:14;101349.03;;;-1.11;50.58
38780;BME280;29273;49.962;9.768;2022-12-18T10:42:40;101345.59;;;-1.12;51.05
38780;BME280;29273;49.962;9.768;2022-12-18T10:45:17;101354.63;;;-1.03;50.81
38780;BME280;29273;49.962;9.768;2022-12-18T10:47:49;101354.53;;;-1.01;50.99
38780;BME280;29273;49.962;9.768;2022-12-18T10:50:29;101345.53;;;-0.96;50.88
38780;BME280;29273;49.962;9.768;2022-12-18T10:52:59;101339.25;;;-0.91;51.10
38780;BME280;29273;49.962;9.768;2022-12-18T10:55:38;101335.44;;;-0.86;51.04
38780;BME280;29273;49.962;9.768;2022-12-18T10:58:20;101329.09;;;-0.82;50.98
38780;BME280;29273;49.962;9.768;2022-12-18T11:01:03;101332.38;;;-0.78;50.96
38780;BME280;29273;49.962;9.768;2022-12-18T11:03:58;101319.94;;;-0.73;51.05
38780;BME280;29273;49.962;9.768;2022-12-18T11:06:25;101317.16;;;-0.70;51.22
38780;BME280;29273;49.962;9.768;2022-12-18T11:09:05;101308.06;;;-0.63;50.93
38780;BME280;29273;49.962;9.768;2022-12-18T11:11:32;101312.22;;;-0.60;51.41
38780;BME280;29273;49.962;9.768;2022-12-18T11:14:04;101306.56;;;-0.52;51.17
38780;BME280;29273;49.962;9.768;2022-12-18T11:16:34;101295.31;;;-0.67;51.41
38780;BME280;29273;49.962;9.768;2022-12-18T11:19:33;101289.00;;;-0.49;51.21
38780;BME280;29273;49.962;9.768;2022-12-18T11:22:01;101287.81;;;-0.43;51.50
38780;BME280;29273;49.962;9.768;2022-12-18T11:24:34;101288.25;;;-0.36;51.29
38780;BME280;29273;49.962;9.768;2022-12-18T11:27:04;101290.66;;;-0.33;51.30
38780;BME280;29273;49.962;9.768;2022-12-18T11:29:38;101287.78;;;-0.29;51.15
38780;BME280;29273;49.962;9.768;2022-12-18T11:34:52;101283.97;;;-0.23;51.12
38780;BME280;29273;49.962;9.768;2022-12-18T11:37:22;101276.97;;;-0.23;51.25
38780;BME280;29273;49.962;9.768;2022-12-18T11:39:54;101275.75;;;-0.17;51.25
38780;BME280;29273;49.962;9.768;2022-12-18T11:42:35;101282.56;;;-0.14;51.23
38780;BME280;29273;49.962;9.768;2022-12-18T11:45:28;101291.19;;;-0.14;51.16
38780;BME280;29273;49.962;9.768;2022-12-18T11:48:17;101293.41;;;-0.08;51.20
38780;BME280;29273;49.962;9.768;2022-12-18T11:50:52;101284.38;;;-0.02;51.16
38780;BME280;29273;49.962;9.768;2022-12-18T11:53:19;101282.53;;;0.00;51.30
38780;BME280;29273;49.962;9.768;2022-12-18T12:04:31;101245.91;;;0.16;51.27
38780;BME280;29273;49.962;9.768;2022-12-18T12:07:14;101244.22;;;0.15;51.49
38780;BME280;29273;49.962;9.768;2022-12-18T12:13:00;101227.91;;;0.26;51.11
38780;BME280;29273;49.962;9.768;2022-12-18T12:15:34;101215.41;;;0.31;51.32
38780;BME280;29273;49.962;9.768;2022-12-18T12:31:33;101234.84;;;0.52;51.45
38780;BME280;29273;49.962;9.768;2022-12-18T12:34:22;101247.78;;;0.54;51.43
38780;BME280;29273;49.962;9.768;2022-12-18T12:37:11;101248.50;;;0.56;51.31
38780;BME280;29273;49.962;9.768;2022-12-18T12:39:41;101245.13;;;0.41;51.55
38780;BME280;29273;49.962;9.768;2022-12-18T12:42:22;101229.97;;;0.61;51.28
38780;BME280;29273;49.962;9.768;2022-12-18T12:45:15;101227.78;;;0.67;51.32
38780;BME280;29273;49.962;9.768;2022-12-18T12:47:44;101223.50;;;0.66;51.47
38780;BME280;29273;49.962;9.768;2022-12-18T12:50:17;101216.19;;;0.71;51.43
38780;BME280;29273;49.962;9.768;2022-12-18T12:52:46;101204.84;;;0.72;51.37
38780;BME280;29273;49.962;9.768;2022-12-18T12:55:24;101195.03;;;0.76;51.17
38780;BME280;29273;49.962;9.768;2022-12-18T13:00:58;101189.41;;;0.82;51.35
38780;BME280;29273;49.962;9.768;2022-12-18T13:03:42;101198.06;;;0.83;51.15
38780;BME280;29273;49.962;9.768;2022-12-18T13:06:23;101195.34;;;0.84;51.35
38780;BME280;29273;49.962;9.768;2022-12-18T13:08:58;101194.44;;;0.85;51.41
38780;BME280;29273;49.962;9.768;2022-12-18T13:11:34;101193.25;;;0.89;51.44
38780;BME280;29273;49.962;9.768;2022-12-18T13:14:39;101194.13;;;0.90;51.17
38780;BME280;29273;49.962;9.768;2022-12-18T13:19:50;101193.38;;;1.01;51.56
38780;BME280;29273;49.962;9.768;2022-12-18T13:22:25;101191.38;;;1.04;51.56
38780;BME280;29273;49.962;9.768;2022-12-18T13:24:53;101191.47;;;1.03;51.69
38780;BME280;29273;49.962;9.768;2022-12-18T13:48:26;101150.63;;;1.27;51.63
38780;BME280;29273;49.962;9.768;2022-12-18T13:50:55;101152.31;;;1.28;51.47
38780;BME280;29273;49.962;9.768;2022-12-18T13:53:26;101165.97;;;1.32;51.52
38780;BME280;29273;49.962;9.768;2022-12-18T13:55:52;101167.22;;;1.26;51.45
38780;BME280;29273;49.962;9.768;2022-12-18T13:58:18;101174.84;;;1.29;51.42
38780;BME280;29273;49.962;9.768;2022-12-18T14:00:44;101177.34;;;1.31;51.59
38780;BME280;29273;49.962;9.768;2022-12-18T14:03:19;101169.09;;;1.37;51.35
38780;BME280;29273;49.962;9.768;2022-12-18T14:05:52;101175.16;;;1.38;51.51
38780;BME280;29273;49.962;9.768;2022-12-18T14:08:18;101170.13;;;1.35;51.54
38780;BME280;29273;49.962;9.768;2022-12-18T14:10:46;101180.38;;;1.38;51.51
38780;BME280;29273;49.962;9.768;2022-12-18T14:13:21;101179.22;;;1.42;51.18
38780;BME280;29273;49.962;9.768;2022-12-18T14:15:48;101185.47;;;1.39;51.45
38780;BME280;29273;49.962;9.768;2022-12-18T14:18:19;101186.31;;;1.40;51.45
38780;BME280;29273;49.962;9.768;2022-12-18T14:20:47;101185.38;;;1.41;51.61
38780;BME280;29273;49.962;9.768;2022-12-18T14:23:41;101185.06;;;1.45;51.34
38780;BME280;29273;49.962;9.768;2022-12-18T14:26:27;101180.75;;;1.44;51.18
38780;BME280;29273;49.962;9.768;2022-12-18T14:28:58;101174.59;;;1.45;51.42
38780;BME280;29273;49.962;9.768;2022-12-18T14:31:28;101181.72;;;1.43;51.23
38780;BME280;29273;49.962;9.768;2022-12-18T14:33:54;101178.38;;;1.41;51.31